sensor_id;sensor_type;location;lat;lon;timestamp;pressure;altitude;pressure_sealevel;temperature;humidity
11830;BME280;5972;42.134;24.718;2023-09-19T00:00:31;100073.75;;;18.82;100.00
11830;BME280;5972;42.134;24.718;2023-09-19T00:02:59;100068.63;;;18.77;100.00
11830;BME280;5972;42.134;24.718;2023-09-19T00:05:29;100065.50;;;18.82;100.00
11830;BME280;5972;42.134;24.718;2023-09-19T00:07:57;100070.16;;;18.75;100.00
11830;BME280;5972;42.134;24.718;2023-09-19T00:10:25;100072.91;;;18.75;100.00
11830;BME280;5972;42.134;24.718;2023-09-19T00:12:53;100058.38;;;18.63;100.00
11830;BME280;5972;42.134;24.718;2023-09-19T00:15:22;100059.53;;;18.62;100.00
11830;BME280;5972;42.134;24.718;2023-09-19T00:17:48;100065.81;;;18.63;100.00
11830;BME280;5972;42.134;24.718;2023-09-19T00:20:17;100065.44;;;18.61;100.00
11830;BME280;5972;42.134;24.718;2023-09-19T00:22:48;100057.63;;;18.66;100.00
11830;BME280;5972;42.134;24.718;2023-09-19T00:25:16;100053.63;;;18.57;100.00
11830;BME280;5972;42.134;24.718;2023-09-19T00:27:43;100059.53;;;18.55;100.00
11830;BME280;5972;42.134;24.718;2023-09-19T00:30:11;100056.34;;;18.50;100.00
11830;BME280;5972;42.134;24.718;2023-09-19T00:32:42;100053.59;;;18.50;100.00
11830;BME280;5972;42.134;24.718;2023-09-19T00:35:10;100057.47;;;18.45;100.00
11830;BME280;5972;42.134;24.718;2023-09-19T00:37:37;100045.72;;;18.41;100.00
11830;BME280;5972;42.134;24.718;2023-09-19T00:40:08;100028.84;;;18.32;100.00
11830;BME280;5972;42.134;24.718;2023-09-19T00:42:38;100053.91;;;18.38;100.00
11830;BME280;5972;42.134;24.718;2023-09-19T00:45:06;100050.81;;;18.43;100.00
11830;BME280;5972;42.134;24.718;2023-09-19T00:47:35;100050.00;;;18.39;100.00
11830;BME280;5972;42.134;24.718;2023-09-19T00:50:03;100050.34;;;18.34;100.00
11830;BME280;5972;42.134;24.718;2023-09-19T00:52:33;100054.28;;;18.33;100.00
11830;BME280;5972;42.134;24.718;2023-09-19T00:55:02;100049.19;;;18.35;100.00
11830;BME280;5972;42.134;24.718;2023-09-19T00:57:31;100052.66;;;18.24;100.00
11830;BME280;5972;42.134;24.718;2023-09-19T01:00:00;100044.38;;;18.14;100.00
11830;BME280;5972;42.134;24.718;2023-09-19T01:02:31;100053.00;;;18.16;100.00
11830;BME280;5972;42.134;24.718;2023-09-19T01:04:58;100060.03;;;18.17;100.00
11830;BME280;5972;42.134;24.718;2023-09-19T01:07:26;100053.75;;;18.13;100.00
11830;BME280;5972;42.134;24.718;2023-09-19T01:09:55;100048.16;;;17.95;100.00
11830;BME280;5972;42.134;24.718;2023-09-19T01:12:30;100049.22;;;17.83;100.00
11830;BME280;5972;42.134;24.718;2023-09-19T01:15:09;100057.06;;;17.85;100.00
11830;BME280;5972;42.134;24.718;2023-09-19T01:17:45;100051.56;;;17.81;100.00
11830;BME280;5972;42.134;24.718;2023-09-19T01:20:28;100044.44;;;17.70;100.00
11830;BME280;5972;42.134;24.718;2023-09-19T01:23:12;100043.19;;;17.60;100.00
11830;BME280;5972;42.134;24.718;2023-09-19T01:26:16;100050.50;;;17.53;100.00
11830;BME280;5972;42.134;24.718;2023-09-19T01:29:06;100048.16;;;17.51;100.00
11830;BME280;5972;42.134;24.718;2023-09-19T01:31:42;100041.44;;;17.45;100.00
11830;BME280;5972;42.134;24.718;2023-09-19T01:34:11;100049.25;;;17.43;100.00
11830;BME280;5972;42.134;24.718;2023-09-19T01:36:38;100036.28;;;17.36;100.00
11830;BME280;5972;42.134;24.718;2023-09-19T01:39:06;100047.66;;;17.38;100.00
11830;BME280;5972;42.134;24.718;2023-09-19T01:41:45;100053.88;;;17.39;100.00
11830;BME280;5972;42.134;24.718;2023-09-19T01:44:22;100051.56;;;17.37;100.00
11830;BME280;5972;42.134;24.718;2023-09-19T01:46:58;100053.88;;;17.39;100.00
11830;BME280;5972;42.134;24.718;2023-09-19T01:49:36;100052.72;;;17.36;100.00
11830;BME280;5972;42.134;24.718;2023-09-19T01:52:09;100053.06;;;17.35;100.00
11830;BME280;5972;42.134;24.718;2023-09-19T01:54:44;100039.75;;;17.30;100.00
11830;BME280;5972;42.134;24.718;2023-09-19T01:57:17;100044.78;;;17.28;100.00
11830;BME280;5972;42.134;24.718;2023-09-19T01:59:50;100052.53;;;17.19;100.00
11830;BME280;5972;42.134;24.718;2023-09-19T02:02:21;100046.31;;;17.22;100.00
11830;BME280;5972;42.134;24.718;2023-09-19T02:04:48;100048.25;;;17.21;100.00
11830;BME280;5972;42.134;24.718;2023-09-19T02:07:16;100054.00;;;17.09;100.00
11830;BME280;5972;42.134;24.718;2023-09-19T02:09:43;100052.88;;;17.14;100.00
11830;BME280;5972;42.134;24.718;2023-09-19T02:12:10;100054.03;;;17.13;100.00
11830;BME280;5972;42.134;24.718;2023-09-19T02:14:37;100047.03;;;17.15;100.00
11830;BME280;5972;42.134;24.718;2023-09-19T02:17:04;100037.53;;;17.05;100.00
11830;BME280;5972;42.134;24.718;2023-09-19T02:19:34;100035.91;;;17.01;100.00
11830;BME280;5972;42.134;24.718;2023-09-19T02:22:02;100027.28;;;16.95;100.00
11830;BME280;5972;42.134;24.718;2023-09-19T02:24:33;100028.13;;;16.99;100.00
11830;BME280;5972;42.134;24.718;2023-09-19T02:27:01;100025.78;;;17.01;100.00
11830;BME280;5972;42.134;24.718;2023-09-19T02:29:30;100034.28;;;16.93;100.00
11830;BME280;5972;42.134;24.718;2023-09-19T02:31:56;100030.78;;;16.96;100.00
11830;BME280;5972;42.134;24.718;2023-09-19T02:34:24;100032.69;;;16.88;100.00
11830;BME280;5972;42.134;24.718;2023-09-19T02:36:52;100040.53;;;16.93;100.00
11830;BME280;5972;42.134;24.718;2023-09-19T02:39:21;100036.97;;;16.89;100.00
11830;BME280;5972;42.134;24.718;2023-09-19T02:41:49;100037.81;;;16.93;100.00
11830;BME280;5972;42.134;24.718;2023-09-19T02:44:16;100026.88;;;16.93;100.00
11830;BME280;5972;42.134;24.718;2023-09-19T02:46:43;100039.34;;;16.94;100.00
11830;BME280;5972;42.134;24.718;2023-09-19T02:49:09;100039.34;;;16.94;100.00
11830;BME280;5972;42.134;24.718;2023-09-19T02:51:38;100039.34;;;16.94;100.00
11830;BME280;5972;42.134;24.718;2023-09-19T02:54:07;100042.09;;;16.94;100.00
11830;BME280;5972;42.134;24.718;2023-09-19T02:56:35;100035.88;;;16.94;100.00
11830;BME280;5972;42.134;24.718;2023-09-19T02:59:02;100033.84;;;16.87;100.00
11830;BME280;5972;42.134;24.718;2023-09-19T03:01:29;100033.41;;;16.85;100.00
11830;BME280;5972;42.134;24.718;2023-09-19T03:03:56;100031.47;;;16.86;100.00
11830;BME280;5972;42.134;24.718;2023-09-19T03:06:24;100034.56;;;16.84;100.00
11830;BME280;5972;42.134;24.718;2023-09-19T03:08:51;100032.59;;;16.81;100.00
11830;BME280;5972;42.134;24.718;2023-09-19T03:11:19;100031.00;;;16.80;100.00
11830;BME280;5972;42.134;24.718;2023-09-19T03:13:51;100027.13;;;16.81;100.00
11830;BME280;5972;42.134;24.718;2023-09-19T03:16:18;100024.06;;;16.86;100.00
11830;BME280;5972;42.134;24.718;2023-09-19T03:18:47;100027.84;;;16.78;100.00
11830;BME280;5972;42.134;24.718;2023-09-19T03:21:14;100028.19;;;16.73;100.00
11830;BME280;5972;42.134;24.718;2023-09-19T03:23:42;100030.91;;;16.73;100.00
11830;BME280;5972;42.134;24.718;2023-09-19T03:26:11;100020.31;;;16.68;100.00
11830;BME280;5972;42.134;24.718;2023-09-19T03:28:39;100026.94;;;16.67;100.00
11830;BME280;5972;42.134;24.718;2023-09-19T03:31:08;100021.81;;;16.62;100.00
11830;BME280;5972;42.134;24.718;2023-09-19T03:33:35;100022.06;;;16.53;100.00
11830;BME280;5972;42.134;24.718;2023-09-19T03:36:03;100022.47;;;16.55;100.00
11830;BME280;5972;42.134;24.718;2023-09-19T03:38:31;100025.53;;;16.50;100.00
11830;BME280;5972;42.134;24.718;2023-09-19T03:40:59;100015.00;;;16.49;100.00
11830;BME280;5972;42.134;24.718;2023-09-19T03:43:25;100006.19;;;16.33;100.00
11830;BME280;5972;42.134;24.718;2023-09-19T03:45:54;100021.25;;;16.49;100.00
11830;BME280;5972;42.134;24.718;2023-09-19T03:48:21;100024.66;;;16.43;100.00
11830;BME280;5972;42.134;24.718;2023-09-19T03:50:48;100027.94;;;16.26;100.00
11830;BME280;5972;42.134;24.718;2023-09-19T03:53:15;100031.03;;;16.24;100.00
11830;BME280;5972;42.134;24.718;2023-09-19T03:55:44;100027.13;;;16.21;100.00
11830;BME280;5972;42.134;24.718;2023-09-19T03:58:12;100038.75;;;16.18;100.00
11830;BME280;5972;42.134;24.718;2023-09-19T04:00:39;100036.84;;;16.22;100.00
11830;BME280;5972;42.134;24.718;2023-09-19T04:03:07;100037.19;;;16.17;100.00
11830;BME280;5972;42.134;24.718;2023-09-19T04:05:34;100032.88;;;16.16;100.00
11830;BME280;5972;42.134;24.718;2023-09-19T04:08:01;100033.16;;;16.08;100.00
11830;BME280;5972;42.134;24.718;2023-09-19T04:10:28;100039.72;;;16.03;100.00
11830;BME280;5972;42.134;24.718;2023-09-19T04:12:55;100040.19;;;16.09;100.00
11830;BME280;5972;42.134;24.718;2023-09-19T04:15:23;100035.91;;;16.11;100.00
11830;BME280;5972;42.134;24.718;2023-09-19T04:17:50;100034.44;;;16.17;100.00
11830;BME280;5972;42.134;24.718;2023-09-19T04:20:19;100033.03;;;16.27;100.00
11830;BME280;5972;42.134;24.718;2023-09-19T04:22:48;100038.53;;;16.31;100.00
11830;BME280;5972;42.134;24.718;2023-09-19T04:25:15;100037.66;;;16.53;100.00
11830;BME280;5972;42.134;24.718;2023-09-19T04:27:44;100037.81;;;16.60;100.00
11830;BME280;5972;42.134;24.718;2023-09-19T04:30:12;100035.56;;;16.69;100.00
11830;BME280;5972;42.134;24.718;2023-09-19T04:32:40;100042.81;;;16.88;100.00
11830;BME280;5972;42.134;24.718;2023-09-19T04:35:08;100046.94;;;17.08;100.00
11830;BME280;5972;42.134;24.718;2023-09-19T04:37:38;100051.34;;;17.16;100.00
11830;BME280;5972;42.134;24.718;2023-09-19T04:40:08;100035.88;;;17.34;100.00
11830;BME280;5972;42.134;24.718;2023-09-19T04:42:40;100043.97;;;17.61;100.00
11830;BME280;5972;42.134;24.718;2023-09-19T04:45:07;100032.00;;;17.79;100.00
11830;BME280;5972;42.134;24.718;2023-09-19T04:47:36;100036.41;;;17.95;100.00
11830;BME280;5972;42.134;24.718;2023-09-19T04:50:06;100014.94;;;18.00;100.00
11830;BME280;5972;42.134;24.718;2023-09-19T04:52:33;100038.63;;;18.37;100.00
11830;BME280;5972;42.134;24.718;2023-09-19T04:55:02;100030.13;;;18.56;100.00
11830;BME280;5972;42.134;24.718;2023-09-19T04:57:29;100035.22;;;18.54;100.00
11830;BME280;5972;42.134;24.718;2023-09-19T04:59:57;100035.75;;;18.81;100.00
11830;BME280;5972;42.134;24.718;2023-09-19T05:02:24;100033.91;;;19.17;100.00
11830;BME280;5972;42.134;24.718;2023-09-19T05:04:51;100029.19;;;19.35;100.00
11830;BME280;5972;42.134;24.718;2023-09-19T05:07:19;100034.34;;;19.58;100.00
11830;BME280;5972;42.134;24.718;2023-09-19T05:09:47;100040.59;;;19.90;100.00
11830;BME280;5972;42.134;24.718;2023-09-19T05:12:15;100032.31;;;20.25;97.34
11830;BME280;5972;42.134;24.718;2023-09-19T05:14:45;100026.75;;;20.61;92.03
11830;BME280;5972;42.134;24.718;2023-09-19T05:17:13;100038.81;;;20.88;88.45
11830;BME280;5972;42.134;24.718;2023-09-19T05:19:42;100044.16;;;21.20;86.31
11830;BME280;5972;42.134;24.718;2023-09-19T05:22:09;100033.06;;;21.34;83.33
11830;BME280;5972;42.134;24.718;2023-09-19T05:24:36;100019.56;;;22.39;77.16
11830;BME280;5972;42.134;24.718;2023-09-19T05:27:04;100042.13;;;23.76;64.62
11830;BME280;5972;42.134;24.718;2023-09-19T05:29:34;100040.09;;;25.21;55.99
11830;BME280;5972;42.134;24.718;2023-09-19T05:32:01;100048.44;;;26.19;51.07
11830;BME280;5972;42.134;24.718;2023-09-19T05:34:29;100042.94;;;27.14;47.55
11830;BME280;5972;42.134;24.718;2023-09-19T05:36:56;100043.56;;;27.94;44.70
11830;BME280;5972;42.134;24.718;2023-09-19T05:39:23;100052.75;;;28.73;42.26
11830;BME280;5972;42.134;24.718;2023-09-19T05:41:50;100058.50;;;29.09;40.66
11830;BME280;5972;42.134;24.718;2023-09-19T05:44:16;100055.03;;;29.58;39.47
11830;BME280;5972;42.134;24.718;2023-09-19T05:46:45;100067.53;;;30.11;38.13
11830;BME280;5972;42.134;24.718;2023-09-19T05:49:13;100069.50;;;30.93;36.89
11830;BME280;5972;42.134;24.718;2023-09-19T05:51:41;100070.28;;;31.45;35.81
11830;BME280;5972;42.134;24.718;2023-09-19T05:54:08;100060.47;;;31.49;35.26
11830;BME280;5972;42.134;24.718;2023-09-19T05:56:36;100061.91;;;31.45;35.37
11830;BME280;5972;42.134;24.718;2023-09-19T05:59:03;100054.78;;;31.76;34.87
11830;BME280;5972;42.134;24.718;2023-09-19T06:01:30;100051.03;;;31.79;34.98
11830;BME280;5972;42.134;24.718;2023-09-19T06:03:59;100047.38;;;31.88;34.26
11830;BME280;5972;42.134;24.718;2023-09-19T06:06:26;100045.31;;;31.41;34.93
11830;BME280;5972;42.134;24.718;2023-09-19T06:08:53;100037.69;;;31.42;34.99
11830;BME280;5972;42.134;24.718;2023-09-19T06:11:20;100039.16;;;31.61;35.07
11830;BME280;5972;42.134;24.718;2023-09-19T06:13:47;100040.22;;;32.49;33.40
11830;BME280;5972;42.134;24.718;2023-09-19T06:16:13;100040.63;;;33.01;33.24
11830;BME280;5972;42.134;24.718;2023-09-19T06:18:40;100038.94;;;33.73;31.99
11830;BME280;5972;42.134;24.718;2023-09-19T06:21:08;100039.59;;;34.03;31.40
11830;BME280;5972;42.134;24.718;2023-09-19T06:23:36;100030.50;;;33.53;31.46
11830;BME280;5972;42.134;24.718;2023-09-19T06:26:03;100035.41;;;34.39;31.19
11830;BME280;5972;42.134;24.718;2023-09-19T06:28:32;100034.50;;;34.28;31.03
11830;BME280;5972;42.134;24.718;2023-09-19T06:30:59;100043.13;;;34.96;30.47
11830;BME280;5972;42.134;24.718;2023-09-19T06:33:26;100027.13;;;35.93;29.22
11830;BME280;5972;42.134;24.718;2023-09-19T06:35:53;100036.63;;;35.16;29.74
11830;BME280;5972;42.134;24.718;2023-09-19T06:38:26;100034.31;;;35.51;29.47
11830;BME280;5972;42.134;24.718;2023-09-19T06:40:53;100024.00;;;35.37;29.72
11830;BME280;5972;42.134;24.718;2023-09-19T06:43:21;100027.63;;;35.85;28.98
11830;BME280;5972;42.134;24.718;2023-09-19T06:45:47;100033.53;;;35.51;29.90
11830;BME280;5972;42.134;24.718;2023-09-19T06:48:16;100023.88;;;33.71;31.99
11830;BME280;5972;42.134;24.718;2023-09-19T06:50:43;100024.31;;;32.85;33.22
11830;BME280;5972;42.134;24.718;2023-09-19T06:53:10;100018.63;;;33.44;32.27
11830;BME280;5972;42.134;24.718;2023-09-19T06:55:39;100020.22;;;33.15;32.86
11830;BME280;5972;42.134;24.718;2023-09-19T06:58:06;100021.94;;;32.01;34.40
11830;BME280;5972;42.134;24.718;2023-09-19T07:00:33;100026.31;;;30.52;37.04
11830;BME280;5972;42.134;24.718;2023-09-19T07:03:03;100015.31;;;29.36;39.32
11830;BME280;5972;42.134;24.718;2023-09-19T07:05:34;100010.97;;;29.34;40.38
11830;BME280;5972;42.134;24.718;2023-09-19T07:08:03;100006.06;;;29.17;40.95
11830;BME280;5972;42.134;24.718;2023-09-19T07:10:32;100017.06;;;29.20;41.00
11830;BME280;5972;42.134;24.718;2023-09-19T07:13:02;100016.00;;;28.22;43.59
11830;BME280;5972;42.134;24.718;2023-09-19T07:15:32;100008.25;;;27.69;45.41
11830;BME280;5972;42.134;24.718;2023-09-19T07:18:01;100013.50;;;27.55;46.85
11830;BME280;5972;42.134;24.718;2023-09-19T07:20:28;100004.59;;;27.60;46.79
11830;BME280;5972;42.134;24.718;2023-09-19T07:22:57;100008.00;;;28.11;45.39
11830;BME280;5972;42.134;24.718;2023-09-19T07:25:26;100005.66;;;28.22;45.33
11830;BME280;5972;42.134;24.718;2023-09-19T07:27:55;100006.69;;;28.37;44.05
11830;BME280;5972;42.134;24.718;2023-09-19T07:30:23;100004.03;;;27.99;45.39
11830;BME280;5972;42.134;24.718;2023-09-19T07:32:51;99998.25;;;27.59;47.42
11830;BME280;5972;42.134;24.718;2023-09-19T07:35:18;100008.78;;;27.77;46.26
11830;BME280;5972;42.134;24.718;2023-09-19T07:37:46;99999.34;;;27.49;47.25
11830;BME280;5972;42.134;24.718;2023-09-19T07:40:15;99992.75;;;26.55;50.12
11830;BME280;5972;42.134;24.718;2023-09-19T07:42:42;99984.34;;;26.71;50.46
11830;BME280;5972;42.134;24.718;2023-09-19T07:45:10;99986.47;;;26.79;50.44
11830;BME280;5972;42.134;24.718;2023-09-19T07:47:44;99989.72;;;27.41;48.39
11830;BME280;5972;42.134;24.718;2023-09-19T07:50:11;99984.75;;;28.18;44.98
11830;BME280;5972;42.134;24.718;2023-09-19T07:52:38;99975.88;;;28.75;43.47
11830;BME280;5972;42.134;24.718;2023-09-19T07:55:06;99977.59;;;28.82;43.38
11830;BME280;5972;42.134;24.718;2023-09-19T07:57:34;99970.69;;;28.96;42.44
11830;BME280;5972;42.134;24.718;2023-09-19T08:00:01;99973.75;;;28.88;42.92
11830;BME280;5972;42.134;24.718;2023-09-19T08:02:30;99968.66;;;28.00;44.81
11830;BME280;5972;42.134;24.718;2023-09-19T08:05:01;99950.31;;;27.68;45.24
11830;BME280;5972;42.134;24.718;2023-09-19T08:07:31;99950.91;;;27.63;44.92
11830;BME280;5972;42.134;24.718;2023-09-19T08:09:58;99957.94;;;27.04;46.49
11830;BME280;5972;42.134;24.718;2023-09-19T08:12:25;99958.81;;;27.52;45.67
11830;BME280;5972;42.134;24.718;2023-09-19T08:14:52;99957.25;;;28.20;43.82
11830;BME280;5972;42.134;24.718;2023-09-19T08:17:20;99949.19;;;28.96;41.94
11830;BME280;5972;42.134;24.718;2023-09-19T08:19:48;99949.22;;;29.72;39.68
11830;BME280;5972;42.134;24.718;2023-09-19T08:22:19;99949.69;;;30.16;38.80
11830;BME280;5972;42.134;24.718;2023-09-19T08:24:47;99950.91;;;30.52;37.84
11830;BME280;5972;42.134;24.718;2023-09-19T08:27:14;99948.47;;;30.87;36.48
11830;BME280;5972;42.134;24.718;2023-09-19T08:29:44;99948.69;;;30.65;37.03
11830;BME280;5972;42.134;24.718;2023-09-19T08:32:12;99942.53;;;30.52;37.44
11830;BME280;5972;42.134;24.718;2023-09-19T08:34:39;99932.88;;;31.04;36.27
11830;BME280;5972;42.134;24.718;2023-09-19T08:37:06;99930.63;;;30.84;36.95
11830;BME280;5972;42.134;24.718;2023-09-19T08:39:35;99934.50;;;29.72;38.87
11830;BME280;5972;42.134;24.718;2023-09-19T08:42:03;99932.31;;;29.49;39.85
11830;BME280;5972;42.134;24.718;2023-09-19T08:44:31;99929.06;;;29.50;39.69
11830;BME280;5972;42.134;24.718;2023-09-19T08:47:09;99907.84;;;29.89;38.98
11830;BME280;5972;42.134;24.718;2023-09-19T08:49:44;99920.16;;;30.43;37.93
11830;BME280;5972;42.134;24.718;2023-09-19T08:52:20;99909.63;;;31.22;36.88
11830;BME280;5972;42.134;24.718;2023-09-19T08:54:52;99916.84;;;31.61;35.66
11830;BME280;5972;42.134;24.718;2023-09-19T08:57:19;99908.66;;;32.26;34.45
11830;BME280;5972;42.134;24.718;2023-09-19T08:59:48;99908.75;;;33.10;32.75
11830;BME280;5972;42.134;24.718;2023-09-19T09:02:16;99907.72;;;33.28;32.36
11830;BME280;5972;42.134;24.718;2023-09-19T09:04:45;99919.63;;;33.83;31.13
11830;BME280;5972;42.134;24.718;2023-09-19T09:07:13;99910.66;;;34.26;30.88
11830;BME280;5972;42.134;24.718;2023-09-19T09:09:42;99910.41;;;34.55;30.95
11830;BME280;5972;42.134;24.718;2023-09-19T09:12:13;99902.06;;;35.09;30.49
11830;BME280;5972;42.134;24.718;2023-09-19T09:14:44;99895.16;;;35.63;29.56
11830;BME280;5972;42.134;24.718;2023-09-19T09:17:12;99902.69;;;35.89;29.23
11830;BME280;5972;42.134;24.718;2023-09-19T09:19:38;99893.25;;;36.03;28.45
11830;BME280;5972;42.134;24.718;2023-09-19T09:22:08;99895.59;;;36.32;28.41
11830;BME280;5972;42.134;24.718;2023-09-19T09:24:35;99894.56;;;36.52;28.48
11830;BME280;5972;42.134;24.718;2023-09-19T09:27:04;99890.97;;;36.79;27.78
11830;BME280;5972;42.134;24.718;2023-09-19T09:29:45;99882.75;;;36.87;27.97
11830;BME280;5972;42.134;24.718;2023-09-19T09:32:19;99881.66;;;37.12;27.15
11830;BME280;5972;42.134;24.718;2023-09-19T09:34:49;99874.88;;;37.95;26.21
11830;BME280;5972;42.134;24.718;2023-09-19T09:37:16;99877.94;;;37.56;26.61
11830;BME280;5972;42.134;24.718;2023-09-19T09:39:53;99877.63;;;38.36;25.74
11830;BME280;5972;42.134;24.718;2023-09-19T09:42:32;99865.03;;;38.07;25.66
11830;BME280;5972;42.134;24.718;2023-09-19T09:45:16;99852.06;;;38.23;25.50
11830;BME280;5972;42.134;24.718;2023-09-19T09:47:44;99855.72;;;37.77;26.66
11830;BME280;5972;42.134;24.718;2023-09-19T09:50:28;99859.69;;;36.77;27.60
11830;BME280;5972;42.134;24.718;2023-09-19T09:53:03;99854.88;;;36.22;28.24
11830;BME280;5972;42.134;24.718;2023-09-19T09:55:57;99833.91;;;35.30;29.04
11830;BME280;5972;42.134;24.718;2023-09-19T09:58:24;99841.59;;;34.82;28.88
11830;BME280;5972;42.134;24.718;2023-09-19T10:00:56;99843.72;;;33.72;30.25
11830;BME280;5972;42.134;24.718;2023-09-19T10:03:34;99824.03;;;32.51;32.24
11830;BME280;5972;42.134;24.718;2023-09-19T10:06:06;99841.72;;;32.28;33.12
11830;BME280;5972;42.134;24.718;2023-09-19T10:09:01;99829.00;;;33.17;32.30
11830;BME280;5972;42.134;24.718;2023-09-19T10:11:31;99842.38;;;34.51;30.42
11830;BME280;5972;42.134;24.718;2023-09-19T10:14:00;99837.78;;;34.48;29.79
11830;BME280;5972;42.134;24.718;2023-09-19T10:16:30;99830.09;;;34.85;29.13
11830;BME280;5972;42.134;24.718;2023-09-19T10:19:02;99834.84;;;35.11;28.44
11830;BME280;5972;42.134;24.718;2023-09-19T10:21:29;99828.16;;;35.08;29.08
11830;BME280;5972;42.134;24.718;2023-09-19T10:23:58;99822.19;;;35.43;28.76
11830;BME280;5972;42.134;24.718;2023-09-19T10:26:26;99820.75;;;35.98;28.06
11830;BME280;5972;42.134;24.718;2023-09-19T10:28:57;99812.06;;;35.96;28.06
11830;BME280;5972;42.134;24.718;2023-09-19T10:31:27;99814.63;;;35.94;28.19
11830;BME280;5972;42.134;24.718;2023-09-19T10:33:57;99810.41;;;35.50;28.42
11830;BME280;5972;42.134;24.718;2023-09-19T10:36:24;99801.03;;;34.94;28.54
11830;BME280;5972;42.134;24.718;2023-09-19T10:38:55;99807.84;;;34.45;29.95
11830;BME280;5972;42.134;24.718;2023-09-19T10:41:25;99800.22;;;34.14;29.79
11830;BME280;5972;42.134;24.718;2023-09-19T10:43:53;99789.97;;;33.79;30.70
11830;BME280;5972;42.134;24.718;2023-09-19T10:46:21;99788.66;;;33.29;31.06
11830;BME280;5972;42.134;24.718;2023-09-19T10:48:50;99790.38;;;33.21;31.76
11830;BME280;5972;42.134;24.718;2023-09-19T10:51:23;99781.16;;;33.92;29.85
11830;BME280;5972;42.134;24.718;2023-09-19T10:53:56;99763.84;;;33.99;29.79
11830;BME280;5972;42.134;24.718;2023-09-19T10:56:30;99774.44;;;34.52;29.36
11830;BME280;5972;42.134;24.718;2023-09-19T10:59:06;99771.06;;;34.85;29.01
11830;BME280;5972;42.134;24.718;2023-09-19T11:01:42;99767.03;;;35.03;28.76
11830;BME280;5972;42.134;24.718;2023-09-19T11:04:26;99756.59;;;35.09;29.01
11830;BME280;5972;42.134;24.718;2023-09-19T11:07:02;99758.97;;;35.27;28.83
11830;BME280;5972;42.134;24.718;2023-09-19T11:09:47;99745.47;;;34.78;29.16
11830;BME280;5972;42.134;24.718;2023-09-19T11:21:42;99731.22;;;30.16;35.94
11830;BME280;5972;42.134;24.718;2023-09-19T11:24:33;99733.06;;;30.43;35.75
11830;BME280;5972;42.134;24.718;2023-09-19T11:27:14;99723.00;;;30.45;35.70
11830;BME280;5972;42.134;24.718;2023-09-19T11:29:43;99728.50;;;30.64;35.21
11830;BME280;5972;42.134;24.718;2023-09-19T11:32:10;99713.28;;;30.65;35.20
11830;BME280;5972;42.134;24.718;2023-09-19T11:34:44;99715.94;;;30.83;35.06
11830;BME280;5972;42.134;24.718;2023-09-19T11:40:35;99693.88;;;31.09;34.63
11830;BME280;5972;42.134;24.718;2023-09-19T11:43:29;99707.50;;;31.30;34.45
11830;BME280;5972;42.134;24.718;2023-09-19T11:46:06;99690.25;;;31.32;34.68
11830;BME280;5972;42.134;24.718;2023-09-19T11:48:34;99686.84;;;31.28;34.23
11830;BME280;5972;42.134;24.718;2023-09-19T11:51:24;99691.19;;;31.44;33.99
11830;BME280;5972;42.134;24.718;2023-09-19T11:53:56;99684.53;;;31.56;33.72
11830;BME280;5972;42.134;24.718;2023-09-19T11:56:27;99686.00;;;31.36;34.36
11830;BME280;5972;42.134;24.718;2023-09-19T11:58:55;99678.44;;;31.28;34.53
11830;BME280;5972;42.134;24.718;2023-09-19T12:01:24;99676.06;;;31.35;34.17
11830;BME280;5972;42.134;24.718;2023-09-19T12:03:55;99669.41;;;31.18;34.51
11830;BME280;5972;42.134;24.718;2023-09-19T12:06:24;99664.84;;;31.06;34.87
11830;BME280;5972;42.134;24.718;2023-09-19T12:08:51;99669.25;;;30.60;35.36
11830;BME280;5972;42.134;24.718;2023-09-19T12:11:21;99656.69;;;29.65;36.66
11830;BME280;5972;42.134;24.718;2023-09-19T12:13:50;99661.78;;;29.67;37.24
11830;BME280;5972;42.134;24.718;2023-09-19T12:16:20;99656.69;;;29.65;37.61
11830;BME280;5972;42.134;24.718;2023-09-19T12:18:49;99653.38;;;29.76;37.40
11830;BME280;5972;42.134;24.718;2023-09-19T12:21:27;99649.50;;;29.92;37.11
11830;BME280;5972;42.134;24.718;2023-09-19T12:24:07;99650.75;;;30.14;36.26
11830;BME280;5972;42.134;24.718;2023-09-19T12:26:42;99645.69;;;30.28;36.48
11830;BME280;5972;42.134;24.718;2023-09-19T12:29:19;99655.94;;;30.31;36.27
11830;BME280;5972;42.134;24.718;2023-09-19T12:31:51;99647.50;;;30.40;35.96
11830;BME280;5972;42.134;24.718;2023-09-19T12:34:21;99652.59;;;30.41;35.81
11830;BME280;5972;42.134;24.718;2023-09-19T12:37:04;99651.72;;;30.59;35.33
11830;BME280;5972;42.134;24.718;2023-09-19T12:39:37;99653.09;;;30.64;35.01
11830;BME280;5972;42.134;24.718;2023-09-19T12:42:04;99646.16;;;30.74;34.97
11830;BME280;5972;42.134;24.718;2023-09-19T12:44:36;99646.44;;;30.13;35.25
11830;BME280;5972;42.134;24.718;2023-09-19T12:47:11;99639.34;;;30.27;35.50
11830;BME280;5972;42.134;24.718;2023-09-19T12:50:09;99640.34;;;30.48;34.78
11830;BME280;5972;42.134;24.718;2023-09-19T12:52:41;99637.09;;;30.64;34.25
11830;BME280;5972;42.134;24.718;2023-09-19T12:55:20;99633.66;;;30.69;33.94
11830;BME280;5972;42.134;24.718;2023-09-19T12:58:07;99622.94;;;30.44;34.86
11830;BME280;5972;42.134;24.718;2023-09-19T13:00:37;99618.50;;;30.37;35.23
11830;BME280;5972;42.134;24.718;2023-09-19T13:03:15;99625.47;;;30.18;35.50
11830;BME280;5972;42.134;24.718;2023-09-19T13:05:51;99624.25;;;30.10;35.35
11830;BME280;5972;42.134;24.718;2023-09-19T13:08:24;99614.47;;;29.82;35.72
11830;BME280;5972;42.134;24.718;2023-09-19T13:11:05;99622.88;;;29.72;35.79
11830;BME280;5972;42.134;24.718;2023-09-19T13:13:35;99620.28;;;29.69;36.30
11830;BME280;5972;42.134;24.718;2023-09-19T13:16:04;99609.13;;;29.69;36.00
11830;BME280;5972;42.134;24.718;2023-09-19T13:18:44;99611.13;;;29.68;36.38